Aviation Digital Data Service (ADDS)

Output produced by TAFs form (1106 UTC 18 October 2017)
found at http://www.aviationweather.gov/adds/tafs/
 
KPIT 181051Z 00000KT 10SM CLR 06/03 A3033 RMK AO2 SLP281 T00560033
KPIT 180904Z 1809/1912 21003KT P6SM SKC
       
KAGC 181053Z 18006KT 10SM CLR 07/03 A3033 RMK AO2 SLP276 T00670033
KAGC 180904Z 1809/1906 20007KT P6SM SKC
       
KBVI 181047Z 00000KT 10SM CLR 06/04 A3033
KBVI 180520Z 1806/1906 21003KT P6SM SKC AMD NOT SKED
       
KFKL 181056Z AUTO 21006KT 10SM CLR 06/03 A3032 RMK AO2 SLP276 T00560028
KFKL 180520Z 1806/1906 21003KT P6SM SKC AMD LTD TO CLD VIS AND WIND
       
KYNG 181051Z 00000KT 10SM FEW250 07/03 A3031 RMK AO2 SLP269 T00670033
KYNG 180520Z 1806/1906 21007KT P6SM FEW250